createdAt,value
2022-11-21T00:01:25.601Z,11.70
2022-11-21T00:03:52.310Z,11.15
2022-11-21T00:06:19.396Z,11.68
2022-11-21T00:08:46.419Z,11.57
2022-11-21T00:11:13.437Z,11.48
2022-11-21T00:13:40.213Z,11.20
2022-11-21T00:16:09.543Z,11.70
2022-11-21T00:18:36.386Z,11.65
2022-11-21T00:21:12.340Z,10.73
2022-11-21T00:23:39.013Z,10.70
2022-11-21T00:26:07.407Z,11.13
2022-11-21T00:28:34.664Z,11.90
2022-11-21T00:31:01.378Z,10.85
2022-11-21T00:33:28.091Z,11.00
2022-11-21T00:35:54.724Z,11.20
2022-11-21T00:38:21.317Z,11.40
2022-11-21T00:40:47.940Z,10.95
2022-11-21T00:43:14.575Z,11.48
2022-11-21T00:45:41.185Z,11.38
2022-11-21T00:48:07.819Z,11.48
2022-11-21T00:50:34.472Z,11.73
2022-11-21T00:53:01.044Z,11.48
2022-11-21T00:55:27.616Z,11.85
2022-11-21T00:57:54.284Z,11.80
2022-11-21T01:00:20.997Z,11.00
2022-11-21T01:02:47.681Z,11.13
2022-11-21T01:05:14.423Z,11.40
2022-11-21T01:07:41.074Z,12.02
2022-11-21T01:10:08.066Z,12.88
2022-11-21T01:12:34.707Z,12.68
2022-11-21T01:15:01.326Z,12.50
2022-11-21T01:17:27.893Z,12.48
2022-11-21T01:19:54.546Z,12.35
2022-11-21T01:22:21.271Z,12.55
2022-11-21T01:24:47.922Z,12.90
2022-11-21T01:27:14.899Z,12.95
2022-11-21T01:29:41.570Z,12.93
2022-11-21T01:32:08.193Z,12.52
2022-11-21T01:34:36.962Z,12.32
2022-11-21T01:37:06.485Z,12.55
2022-11-21T01:39:33.190Z,12.18
2022-11-21T01:41:59.784Z,11.80
2022-11-21T01:44:44.694Z,11.15
2022-11-21T01:47:11.384Z,10.80
2022-11-21T01:49:37.988Z,11.38
2022-11-21T01:52:26.357Z,11.05
2022-11-21T01:55:00.681Z,10.82
2022-11-21T01:57:30.221Z,11.07
2022-11-21T02:00:06.804Z,10.98
2022-11-21T02:02:36.802Z,11.15
2022-11-21T02:05:05.398Z,11.48
2022-11-21T02:07:36.304Z,11.35
2022-11-21T02:10:04.560Z,10.85
2022-11-21T02:12:34.693Z,11.05
2022-11-21T02:15:01.796Z,11.00
2022-11-21T02:17:32.457Z,10.95
2022-11-21T02:20:02.310Z,11.23
2022-11-21T02:22:50.729Z,10.85
2022-11-21T02:25:26.381Z,11.27
2022-11-21T02:27:57.676Z,10.68
2022-11-21T02:30:24.707Z,11.25
2022-11-21T02:32:51.336Z,10.88
2022-11-21T02:35:19.204Z,10.90
2022-11-21T02:37:47.831Z,10.82
2022-11-21T02:40:20.664Z,10.93
2022-11-21T02:43:03.851Z,11.13
2022-11-21T02:45:33.648Z,10.48
2022-11-21T02:48:03.898Z,10.85
2022-11-21T02:50:35.860Z,10.98
2022-11-21T02:53:03.780Z,11.07
2022-11-21T02:55:30.435Z,10.60
2022-11-21T02:58:01.639Z,10.90
2022-11-21T03:00:31.352Z,10.50
2022-11-21T03:02:58.064Z,11.18
2022-11-21T03:05:24.949Z,10.50
2022-11-21T03:07:51.759Z,10.73
2022-11-21T03:10:18.523Z,10.30
2022-11-21T03:12:45.116Z,10.40
2022-11-21T03:15:13.981Z,11.32
2022-11-21T03:17:42.160Z,10.82
2022-11-21T03:20:09.425Z,10.40
2022-11-21T03:22:36.060Z,9.50
2022-11-21T03:25:02.629Z,9.98
2022-11-21T03:27:29.303Z,9.93
2022-11-21T03:29:55.854Z,10.18
2022-11-21T03:32:22.565Z,9.68
2022-11-21T03:34:49.202Z,9.77
2022-11-21T03:37:17.121Z,10.02
2022-11-21T03:39:43.775Z,9.23
2022-11-21T03:42:10.430Z,9.70
2022-11-21T03:44:40.180Z,10.13
2022-11-21T03:47:06.803Z,9.95
2022-11-21T03:49:33.386Z,10.00
2022-11-21T03:52:00.028Z,10.23
2022-11-21T03:54:27.159Z,9.80
2022-11-21T03:56:54.057Z,10.52
2022-11-21T03:59:20.677Z,9.70
2022-11-21T04:01:47.319Z,9.93
2022-11-21T04:04:14.025Z,9.90
2022-11-21T04:06:40.625Z,9.85
2022-11-21T04:09:07.339Z,9.32
2022-11-21T04:11:33.911Z,9.63
2022-11-21T04:14:00.595Z,9.60
2022-11-21T04:16:27.317Z,9.30
2022-11-21T04:18:54.072Z,9.07
2022-11-21T04:21:20.915Z,9.20
2022-11-21T04:23:47.580Z,8.90
2022-11-21T04:26:14.280Z,8.45
2022-11-21T04:28:40.885Z,8.65
2022-11-21T04:31:11.137Z,8.25
2022-11-21T04:33:39.280Z,7.97
2022-11-21T04:36:08.081Z,8.20
2022-11-21T04:38:34.822Z,8.40
2022-11-21T04:41:01.407Z,8.43
2022-11-21T04:43:28.010Z,8.45
2022-11-21T04:45:54.753Z,8.52
2022-11-21T04:48:21.374Z,8.13
2022-11-21T04:50:47.968Z,8.30
2022-11-21T04:53:14.654Z,7.85
2022-11-21T04:55:41.293Z,8.05
2022-11-21T04:58:07.954Z,8.18
2022-11-21T05:00:35.172Z,8.10
2022-11-21T05:03:06.226Z,7.90
2022-11-21T05:05:33.134Z,8.50
2022-11-21T05:07:59.817Z,8.23
2022-11-21T05:10:26.600Z,8.00
2022-11-21T05:13:18.360Z,8.13
2022-11-21T05:15:45.459Z,7.50
2022-11-21T05:18:12.057Z,7.63
2022-11-21T05:20:38.994Z,8.35
2022-11-21T05:23:05.648Z,7.93
2022-11-21T05:25:32.328Z,7.60
2022-11-21T05:28:01.316Z,7.75
2022-11-21T05:30:28.046Z,7.63
2022-11-21T05:32:54.734Z,7.28
2022-11-21T05:35:21.382Z,19.25
2022-11-21T05:37:48.054Z,21.75
2022-11-21T05:40:14.769Z,21.42
2022-11-21T05:43:01.201Z,13.48
2022-11-21T05:45:27.883Z,17.58
2022-11-21T05:47:57.470Z,21.55
2022-11-21T05:50:24.074Z,27.38
2022-11-21T05:52:50.769Z,14.32
2022-11-21T05:55:17.350Z,38.15
2022-11-21T05:57:44.004Z,20.80
2022-11-21T06:00:11.036Z,21.35
2022-11-21T06:02:56.341Z,18.00
2022-11-21T06:05:23.018Z,16.08
2022-11-21T06:07:49.573Z,14.90
2022-11-21T06:10:17.957Z,14.20
2022-11-21T06:12:44.566Z,13.75
2022-11-21T06:15:11.249Z,13.48
2022-11-21T06:17:37.871Z,13.43
2022-11-21T06:20:04.875Z,13.25
2022-11-21T06:22:31.561Z,13.50
2022-11-21T06:24:58.195Z,12.77
2022-11-21T06:27:25.116Z,13.43
2022-11-21T06:29:51.769Z,12.57
2022-11-21T06:32:18.411Z,12.80
2022-11-21T06:34:45.032Z,12.43
2022-11-21T06:37:11.643Z,12.93
2022-11-21T06:39:38.220Z,11.65
2022-11-21T06:42:04.991Z,11.57
2022-11-21T06:44:31.662Z,12.30
2022-11-21T06:47:00.212Z,11.45
2022-11-21T06:49:26.981Z,11.48
2022-11-21T06:51:53.635Z,11.75
2022-11-21T06:54:20.225Z,12.40
2022-11-21T06:56:46.767Z,11.68
2022-11-21T06:59:13.342Z,11.57
2022-11-21T07:01:40.137Z,11.25
2022-11-21T07:04:06.749Z,10.77
2022-11-21T07:06:34.785Z,10.77
2022-11-21T07:11:48.151Z,10.27
2022-11-21T07:14:14.778Z,10.43
2022-11-21T07:16:41.397Z,9.82
2022-11-21T07:19:08.279Z,10.77
2022-11-21T07:21:34.875Z,9.63
2022-11-21T07:24:01.596Z,9.38
2022-11-21T07:26:28.229Z,9.43
2022-11-21T07:28:54.832Z,10.07
2022-11-21T07:31:21.427Z,9.32
2022-11-21T07:33:48.278Z,9.35
2022-11-21T07:36:14.929Z,9.07
2022-11-21T07:38:42.115Z,9.18
2022-11-21T07:41:09.754Z,9.20
2022-11-21T07:43:38.382Z,8.60
2022-11-21T07:46:05.031Z,8.90
2022-11-21T07:48:31.607Z,8.80
2022-11-21T07:50:58.200Z,8.13
2022-11-21T07:53:24.804Z,9.00
2022-11-21T07:55:51.488Z,8.70
2022-11-21T07:58:18.148Z,8.15
2022-11-21T08:00:44.790Z,8.38
2022-11-21T08:03:12.592Z,8.38
2022-11-21T08:05:43.813Z,8.60
2022-11-21T08:08:12.193Z,8.88
2022-11-21T08:10:41.307Z,8.32
2022-11-21T08:13:08.054Z,8.18
2022-11-21T08:15:34.646Z,7.88
2022-11-21T08:18:11.487Z,8.23
2022-11-21T08:20:38.194Z,8.05
2022-11-21T08:23:06.110Z,7.43
2022-11-21T08:25:34.143Z,7.53
2022-11-21T08:28:02.660Z,7.47
2022-11-21T08:30:29.806Z,7.55
2022-11-21T08:32:58.800Z,7.53
2022-11-21T08:35:28.950Z,7.47
2022-11-21T08:37:59.942Z,7.20
2022-11-21T08:40:28.282Z,7.30
2022-11-21T08:42:58.929Z,7.10
2022-11-21T08:45:26.083Z,6.82
2022-11-21T08:47:53.955Z,6.80
2022-11-21T08:50:21.561Z,6.90
2022-11-21T08:52:48.415Z,6.68
2022-11-21T08:55:15.815Z,7.15
2022-11-21T08:57:42.993Z,6.30
2022-11-21T09:00:12.631Z,6.47
2022-11-21T09:02:39.305Z,6.70
2022-11-21T09:05:06.529Z,6.30
2022-11-21T09:07:33.192Z,6.53
2022-11-21T09:09:59.853Z,6.22
2022-11-21T09:12:26.436Z,6.28
2022-11-21T09:15:11.624Z,6.15
2022-11-21T09:17:57.003Z,5.88
2022-11-21T09:20:23.849Z,6.20
2022-11-21T09:22:50.618Z,5.70
2022-11-21T09:25:17.266Z,6.18
2022-11-21T09:27:43.802Z,5.85
2022-11-21T09:30:11.086Z,6.13
2022-11-21T09:32:37.691Z,5.57
2022-11-21T09:35:04.969Z,5.60
2022-11-21T09:37:40.253Z,5.57
2022-11-21T09:40:07.522Z,5.40
2022-11-21T09:42:52.548Z,5.60
2022-11-21T09:45:31.457Z,5.55
2022-11-21T09:47:58.305Z,5.38
2022-11-21T09:50:52.328Z,5.75
2022-11-21T09:53:33.947Z,5.50
2022-11-21T09:56:21.480Z,5.30
2022-11-21T09:59:15.664Z,5.10
2022-11-21T10:01:42.275Z,4.88
2022-11-21T10:04:09.226Z,5.07
2022-11-21T10:06:48.281Z,5.00
2022-11-21T10:09:51.742Z,5.25
2022-11-21T10:12:43.967Z,4.85
2022-11-21T10:15:34.634Z,5.05
2022-11-21T10:18:07.435Z,5.00
2022-11-21T10:20:34.087Z,5.10
2022-11-21T10:23:16.006Z,5.03
2022-11-21T10:25:51.149Z,5.00
2022-11-21T10:28:22.190Z,4.70
2022-11-21T10:30:51.853Z,4.55
2022-11-21T10:33:26.065Z,4.80
2022-11-21T10:35:58.067Z,5.05
2022-11-21T10:38:26.598Z,4.75
2022-11-21T10:41:06.951Z,4.78
2022-11-21T10:44:02.299Z,4.60
2022-11-21T10:46:28.863Z,4.90
2022-11-21T10:49:03.663Z,4.60
2022-11-21T10:51:48.491Z,4.70
2022-11-21T10:54:33.711Z,4.47
2022-11-21T10:59:33.213Z,4.35
2022-11-21T11:02:03.872Z,4.53
2022-11-21T11:04:36.844Z,4.55
2022-11-21T11:07:26.174Z,4.60
2022-11-21T11:09:53.939Z,4.53
2022-11-21T11:12:46.177Z,4.40
2022-11-21T11:15:24.826Z,4.18
2022-11-21T11:17:57.164Z,4.45
2022-11-21T11:20:41.472Z,4.40
2022-11-21T11:23:17.270Z,4.10
2022-11-21T11:25:48.494Z,4.20
2022-11-21T11:28:15.297Z,4.03
2022-11-21T11:30:43.171Z,4.00
2022-11-21T11:33:41.426Z,4.20
2022-11-21T11:36:18.196Z,4.35
2022-11-21T11:38:56.236Z,3.88
2022-11-21T11:41:54.975Z,3.90
2022-11-21T11:45:06.502Z,3.85
2022-11-21T11:47:39.431Z,3.80
2022-11-21T11:50:11.784Z,3.88
2022-11-21T11:53:10.871Z,3.90
2022-11-21T11:55:57.789Z,3.95
2022-11-21T11:58:35.610Z,3.63
2022-11-21T12:01:11.032Z,3.35
2022-11-21T12:03:44.004Z,4.00
2022-11-21T12:06:19.541Z,3.70
2022-11-21T12:08:56.539Z,3.72
2022-11-21T12:11:49.396Z,3.35
2022-11-21T12:15:00.210Z,3.67
2022-11-21T12:18:02.924Z,3.50
2022-11-21T12:20:52.456Z,3.72
2022-11-21T12:23:19.580Z,3.20
2022-11-21T12:25:58.649Z,3.30
2022-11-21T12:29:00.563Z,3.25
2022-11-21T12:31:54.795Z,3.33
2022-11-21T12:35:02.477Z,3.08
2022-11-21T12:37:59.256Z,2.92
2022-11-21T12:40:37.925Z,3.05
2022-11-21T12:43:20.503Z,2.92
2022-11-21T12:45:52.526Z,2.90
2022-11-21T12:48:43.844Z,3.05
2022-11-21T12:51:37.464Z,2.70
2022-11-21T12:54:31.605Z,3.05
2022-11-21T12:57:14.272Z,3.20
2022-11-21T12:59:43.595Z,2.40
2022-11-21T13:02:23.366Z,3.00
2022-11-21T13:04:51.187Z,2.75
2022-11-21T13:07:19.392Z,2.67
2022-11-21T13:09:48.843Z,3.10
2022-11-21T13:12:21.764Z,2.75
2022-11-21T13:15:15.773Z,3.22
2022-11-21T13:17:49.586Z,2.72
2022-11-21T13:20:40.446Z,2.72
2022-11-21T13:23:42.727Z,2.92
2022-11-21T13:26:24.392Z,2.80
2022-11-21T13:28:53.330Z,2.97
2022-11-21T13:31:28.256Z,2.70
2022-11-21T13:36:30.297Z,2.72
2022-11-21T13:38:56.908Z,2.60
2022-11-21T13:41:54.090Z,2.58
2022-11-21T13:44:29.459Z,2.72
2022-11-21T13:47:06.572Z,2.40
2022-11-21T13:49:40.312Z,2.40
2022-11-21T13:52:12.521Z,2.63
2022-11-21T13:55:13.324Z,2.55
2022-11-21T13:57:51.841Z,2.60
2022-11-21T14:00:26.292Z,2.50
2022-11-21T14:03:11.061Z,2.25
2022-11-21T14:05:46.190Z,2.35
2022-11-21T14:08:22.040Z,2.50
2022-11-21T14:10:50.877Z,2.38
2022-11-21T14:13:23.388Z,2.38
2022-11-21T14:16:04.479Z,2.10
2022-11-21T14:18:32.663Z,2.20
2022-11-21T14:21:00.994Z,2.67
2022-11-21T14:23:33.244Z,2.28
2022-11-21T14:26:05.458Z,1.90
2022-11-21T14:28:34.328Z,2.00
2022-11-21T14:31:06.741Z,2.10
2022-11-21T14:33:35.250Z,2.13
2022-11-21T14:36:20.413Z,1.85
2022-11-21T14:39:07.491Z,2.22
2022-11-21T14:41:38.234Z,2.15
2022-11-21T14:44:06.006Z,1.85
2022-11-21T14:46:36.730Z,1.92
2022-11-21T14:49:12.610Z,1.70
2022-11-21T14:51:40.842Z,1.80
2022-11-21T14:54:13.905Z,2.30
2022-11-21T14:56:41.412Z,1.90
2022-11-21T14:59:23.878Z,1.90
2022-11-21T15:01:56.091Z,2.00
2022-11-21T15:04:34.713Z,1.70
2022-11-21T15:07:01.524Z,1.98
2022-11-21T15:10:25.972Z,1.80
2022-11-21T15:12:31.034Z,1.83
2022-11-21T15:14:59.337Z,1.77
2022-11-21T15:17:27.177Z,1.70
2022-11-21T15:20:26.575Z,1.67
2022-11-21T15:23:00.596Z,1.80
2022-11-21T15:25:31.648Z,1.80
2022-11-21T15:28:02.342Z,1.58
2022-11-21T15:30:30.624Z,1.50
2022-11-21T15:33:16.303Z,1.50
2022-11-21T15:35:55.647Z,1.52
2022-11-21T15:38:25.455Z,1.58
2022-11-21T15:41:10.260Z,1.63
2022-11-21T15:43:39.989Z,1.50
2022-11-21T15:46:23.140Z,1.50
2022-11-21T15:48:54.558Z,1.52
2022-11-21T15:54:19.920Z,1.50
2022-11-21T15:56:47.231Z,1.60
2022-11-21T15:57:15.963Z,1.45
2022-11-21T15:59:14.623Z,1.60
2022-11-21T16:01:41.606Z,1.50
2022-11-21T16:04:11.391Z,1.77
2022-11-21T16:06:38.053Z,1.52
2022-11-21T16:09:04.827Z,1.40
2022-11-21T16:11:33.707Z,1.77
2022-11-21T16:14:02.304Z,1.50
2022-11-21T16:16:34.012Z,1.58
2022-11-21T16:19:00.757Z,1.48
2022-11-21T16:21:27.452Z,1.60
2022-11-21T16:23:55.171Z,1.40
2022-11-21T16:26:22.339Z,1.30
2022-11-21T16:28:53.758Z,1.50
2022-11-21T16:31:22.686Z,1.42
2022-11-21T16:33:49.502Z,1.45
2022-11-21T16:36:27.520Z,1.60
2022-11-21T16:38:54.667Z,1.63
2022-11-21T16:41:22.738Z,1.60
2022-11-21T16:43:51.365Z,2.00
2022-11-21T16:46:19.266Z,1.60
2022-11-21T16:48:46.134Z,1.60
2022-11-21T16:51:14.141Z,1.60
2022-11-21T16:53:43.181Z,1.80
2022-11-21T16:56:10.763Z,1.50
2022-11-21T16:58:38.936Z,1.52
2022-11-21T17:01:13.596Z,1.77
2022-11-21T17:06:08.452Z,1.70
2022-11-21T17:08:36.116Z,1.77
2022-11-21T17:11:11.844Z,1.70
2022-11-21T17:13:38.460Z,1.88
2022-11-21T17:16:06.062Z,1.70
2022-11-21T17:18:33.097Z,1.73
2022-11-21T17:20:59.669Z,1.65
2022-11-21T17:23:26.353Z,1.80
2022-11-21T17:25:53.015Z,2.00
2022-11-21T17:28:19.677Z,1.80
2022-11-21T17:30:46.301Z,1.90
2022-11-21T17:33:13.109Z,2.00
2022-11-21T17:35:39.728Z,2.40
2022-11-21T17:38:06.369Z,2.53
2022-11-21T17:40:33.043Z,2.30
2022-11-21T17:42:59.644Z,2.28
2022-11-21T17:45:26.218Z,2.20
2022-11-21T17:47:52.786Z,2.33
2022-11-21T17:50:19.434Z,1.98
2022-11-21T17:52:47.068Z,2.00
2022-11-21T17:55:13.800Z,1.92
2022-11-21T17:57:40.542Z,2.00
2022-11-21T18:00:08.414Z,2.03
2022-11-21T18:02:35.143Z,2.03
2022-11-21T18:05:01.839Z,1.98
2022-11-21T18:07:29.954Z,1.80
2022-11-21T18:10:09.213Z,2.00
2022-11-21T18:12:43.804Z,2.08
2022-11-21T18:15:10.560Z,1.83
2022-11-21T18:17:39.799Z,1.70
2022-11-21T18:20:06.960Z,1.85
2022-11-21T18:22:33.657Z,1.83
2022-11-21T18:25:00.331Z,1.90
2022-11-21T18:27:27.824Z,1.98
2022-11-21T18:29:54.466Z,2.00
2022-11-21T18:32:21.041Z,1.80
2022-11-21T18:34:47.671Z,2.10
2022-11-21T18:37:14.304Z,2.20
2022-11-21T18:39:40.954Z,2.10
2022-11-21T18:42:08.339Z,2.30
2022-11-21T18:44:34.972Z,2.40
2022-11-21T18:47:01.564Z,2.03
2022-11-21T18:49:28.508Z,1.85
2022-11-21T18:51:55.500Z,2.10
2022-11-21T18:54:22.097Z,2.28
2022-11-21T18:56:48.647Z,2.17
2022-11-21T18:59:15.241Z,2.97
2022-11-21T19:01:42.168Z,3.42
2022-11-21T19:04:09.414Z,3.10
2022-11-21T19:06:36.100Z,2.67
2022-11-21T19:09:02.754Z,2.85
2022-11-21T19:11:29.766Z,3.08
2022-11-21T19:13:57.818Z,3.03
2022-11-21T19:16:25.804Z,2.75
2022-11-21T19:19:26.457Z,2.30
2022-11-21T19:21:42.688Z,2.50
2022-11-21T19:24:13.751Z,2.58
2022-11-21T19:26:41.301Z,2.38
2022-11-21T19:29:07.971Z,2.78
2022-11-21T19:31:37.896Z,2.35
2022-11-21T19:34:09.533Z,2.58
2022-11-21T19:36:36.639Z,2.70
2022-11-21T19:39:03.382Z,2.80
2022-11-21T19:41:30.742Z,2.78
2022-11-21T19:44:01.270Z,2.60
2022-11-21T19:46:31.273Z,2.90
2022-11-21T19:48:58.461Z,2.72
2022-11-21T19:51:30.632Z,2.53
2022-11-21T19:53:57.289Z,2.85
2022-11-21T19:56:25.845Z,2.60
2022-11-21T19:58:52.993Z,2.88
2022-11-21T20:01:22.981Z,2.70
2022-11-21T20:03:52.439Z,3.10
2022-11-21T20:06:21.486Z,2.97
2022-11-21T20:08:56.159Z,3.30
2022-11-21T20:11:24.016Z,3.50
2022-11-21T20:13:51.226Z,3.55
2022-11-21T20:16:19.432Z,3.60
2022-11-21T20:18:46.269Z,4.07
2022-11-21T20:21:13.705Z,3.88
2022-11-21T20:23:40.356Z,3.35
2022-11-21T20:26:08.277Z,3.72
2022-11-21T20:28:36.162Z,3.67
2022-11-21T20:31:06.653Z,3.47
2022-11-21T20:33:41.408Z,3.60
2022-11-21T20:36:16.164Z,3.85
2022-11-21T20:38:43.520Z,3.28
2022-11-21T20:41:10.193Z,3.40
2022-11-21T20:44:10.545Z,3.47
2022-11-21T20:46:23.581Z,3.50
2022-11-21T20:48:50.295Z,3.20
2022-11-21T20:54:04.283Z,3.30
2022-11-21T20:56:35.441Z,3.50
2022-11-21T20:59:02.708Z,3.35
2022-11-21T21:01:29.472Z,3.25
2022-11-21T21:03:56.139Z,3.60
2022-11-21T21:06:24.224Z,3.67
2022-11-21T21:08:51.551Z,3.20
2022-11-21T21:11:50.372Z,3.30
2022-11-21T21:14:09.449Z,3.70
2022-11-21T21:16:36.259Z,3.40
2022-11-21T21:19:03.456Z,3.05
2022-11-21T21:21:33.473Z,3.60
2022-11-21T21:24:02.367Z,3.70
2022-11-21T21:26:38.749Z,3.60
2022-11-21T21:29:10.129Z,3.53
2022-11-21T21:31:36.702Z,3.60
2022-11-21T21:34:03.285Z,3.30
2022-11-21T21:36:30.286Z,3.20
2022-11-21T21:38:58.437Z,3.38
2022-11-21T21:41:26.824Z,3.47
2022-11-21T21:43:54.125Z,3.50
2022-11-21T21:46:23.034Z,3.15
2022-11-21T21:48:52.440Z,3.50
2022-11-21T21:51:21.795Z,2.97
2022-11-21T21:53:49.836Z,2.90
2022-11-21T21:56:17.711Z,3.10
2022-11-21T21:58:45.660Z,2.70
2022-11-21T22:01:14.767Z,2.80
2022-11-21T22:03:42.039Z,2.80
2022-11-21T22:06:16.458Z,2.92
2022-11-21T22:08:43.825Z,2.80
2022-11-21T22:11:12.656Z,3.15
2022-11-21T22:13:41.779Z,2.80
2022-11-21T22:16:09.776Z,3.00
2022-11-21T22:18:36.703Z,2.95
2022-11-21T22:21:16.398Z,2.90
2022-11-21T22:24:02.916Z,2.90
2022-11-21T22:26:30.515Z,3.22
2022-11-21T22:28:57.097Z,3.10
2022-11-21T22:31:23.670Z,3.20
2022-11-21T22:33:50.297Z,3.00
2022-11-21T22:36:18.287Z,3.45
2022-11-21T22:38:45.521Z,3.60
2022-11-21T22:41:18.242Z,3.53
2022-11-21T22:43:48.633Z,3.25
2022-11-21T22:46:15.274Z,3.58
2022-11-21T22:48:41.969Z,3.85
2022-11-21T22:51:08.799Z,3.50
2022-11-21T22:53:39.914Z,3.80
2022-11-21T22:56:09.004Z,3.80
2022-11-21T22:58:40.179Z,4.03
2022-11-21T23:01:12.429Z,3.70
2022-11-21T23:03:39.724Z,3.90
2022-11-21T23:06:12.076Z,4.10
2022-11-21T23:08:39.846Z,3.78
2022-11-21T23:11:07.509Z,3.90
2022-11-21T23:13:35.052Z,3.80
2022-11-21T23:16:02.584Z,3.95
2022-11-21T23:18:29.268Z,4.05
2022-11-21T23:20:56.248Z,4.10
2022-11-21T23:23:23.751Z,3.97
2022-11-21T23:25:50.776Z,3.95
2022-11-21T23:28:17.721Z,4.07
2022-11-21T23:30:45.801Z,4.20
2022-11-21T23:33:12.625Z,3.90
2022-11-21T23:35:39.580Z,4.07
2022-11-21T23:38:06.426Z,4.10
2022-11-21T23:40:33.051Z,4.05
2022-11-21T23:42:59.643Z,4.05
2022-11-21T23:45:26.300Z,4.00
2022-11-21T23:47:53.011Z,4.07
2022-11-21T23:50:21.183Z,4.38
2022-11-21T23:52:48.484Z,4.20
2022-11-21T23:55:16.166Z,3.78
2022-11-21T23:57:46.498Z,4.03
